createdAt,value
2019-05-16T00:00:40.334Z,8.73
2019-05-16T00:03:10.197Z,8.80
2019-05-16T00:05:50.893Z,8.83
2019-05-16T00:08:12.775Z,8.77
2019-05-16T00:10:42.479Z,9.00
2019-05-16T00:13:12.171Z,7.80
2019-05-16T00:15:41.774Z,8.47
2019-05-16T00:18:11.416Z,8.70
2019-05-16T00:20:41.004Z,8.43
2019-05-16T00:23:10.645Z,8.83
2019-05-16T00:25:40.246Z,8.27
2019-05-16T00:28:09.845Z,8.77
2019-05-16T00:30:39.419Z,8.43
2019-05-16T00:33:09.015Z,8.50
2019-05-16T00:35:38.921Z,7.97
2019-05-16T00:38:08.936Z,8.97
2019-05-16T00:40:38.638Z,7.93
2019-05-16T00:43:08.269Z,7.83
2019-05-16T00:45:38.486Z,8.20
2019-05-16T00:48:09.029Z,7.50
2019-05-16T00:50:39.128Z,7.63
2019-05-16T00:53:09.301Z,7.70
2019-05-16T00:55:40.270Z,8.37
2019-05-16T00:58:10.779Z,8.20
2019-05-16T01:00:50.569Z,8.17
2019-05-16T01:03:20.641Z,8.27
2019-05-16T01:05:50.251Z,8.07
2019-05-16T01:08:19.963Z,8.27
2019-05-16T01:10:51.438Z,10.43
2019-05-16T01:13:20.943Z,10.23
2019-05-16T01:15:50.559Z,11.77
2019-05-16T01:18:20.128Z,11.93
2019-05-16T01:20:49.714Z,12.67
2019-05-16T01:23:19.289Z,12.07
2019-05-16T01:25:48.979Z,10.87
2019-05-16T01:28:18.831Z,11.50
2019-05-16T01:30:49.069Z,11.70
2019-05-16T01:33:19.351Z,13.13
2019-05-16T01:35:49.177Z,12.60
2019-05-16T01:38:18.820Z,12.57
2019-05-16T01:40:49.209Z,12.63
2019-05-16T01:43:19.061Z,11.27
2019-05-16T01:45:48.954Z,10.93
2019-05-16T01:48:19.290Z,10.47
2019-05-16T01:50:49.475Z,10.70
2019-05-16T01:53:19.054Z,9.53
2019-05-16T01:55:49.065Z,11.73
2019-05-16T01:58:20.080Z,10.53
2019-05-16T02:01:02.691Z,11.33
2019-05-16T02:03:21.548Z,10.07
2019-05-16T02:05:51.168Z,10.93
2019-05-16T02:08:20.759Z,9.97
2019-05-16T02:10:50.358Z,10.13
2019-05-16T02:13:19.954Z,9.50
2019-05-16T02:15:49.593Z,9.90
2019-05-16T02:18:19.285Z,10.30
2019-05-16T02:20:48.869Z,10.30
2019-05-16T02:23:18.988Z,10.50
2019-05-16T02:25:49.288Z,9.80
2019-05-16T02:28:21.129Z,10.70
2019-05-16T02:30:51.399Z,9.87
2019-05-16T02:33:21.814Z,11.37
2019-05-16T02:35:55.430Z,10.60
2019-05-16T02:38:22.797Z,10.40
2019-05-16T02:40:55.197Z,9.77
2019-05-16T02:43:26.143Z,11.33
2019-05-16T02:45:55.176Z,10.03
2019-05-16T02:48:24.754Z,10.10
2019-05-16T02:50:54.338Z,10.60
2019-05-16T02:53:23.999Z,10.30
2019-05-16T02:55:53.577Z,9.77
2019-05-16T02:58:23.829Z,10.03
2019-05-16T03:00:53.862Z,8.50
2019-05-16T03:03:23.868Z,9.20
2019-05-16T03:05:54.337Z,9.03
2019-05-16T03:08:25.972Z,10.27
2019-05-16T03:10:56.255Z,9.73
2019-05-16T03:13:31.076Z,9.27
2019-05-16T03:16:02.522Z,9.73
2019-05-16T03:18:33.859Z,9.57
2019-05-16T03:21:04.866Z,10.03
2019-05-16T03:23:34.553Z,9.17
2019-05-16T03:26:04.156Z,10.60
2019-05-16T03:28:33.752Z,9.60
2019-05-16T03:31:05.741Z,10.03
2019-05-16T03:33:41.411Z,11.50
2019-05-16T03:36:06.093Z,10.20
2019-05-16T03:38:35.711Z,10.40
2019-05-16T03:41:05.308Z,10.60
2019-05-16T03:43:34.925Z,11.03
2019-05-16T03:46:04.589Z,11.40
2019-05-16T03:48:34.164Z,10.60
2019-05-16T03:51:03.767Z,11.03
2019-05-16T03:53:33.364Z,12.00
2019-05-16T03:56:02.971Z,10.77
2019-05-16T03:58:32.578Z,10.00
2019-05-16T04:01:02.777Z,10.57
2019-05-16T04:03:33.398Z,10.47
2019-05-16T04:06:03.168Z,11.13
2019-05-16T04:08:32.803Z,10.97
2019-05-16T04:11:02.385Z,12.53
2019-05-16T04:13:32.355Z,10.73
2019-05-16T04:16:01.935Z,10.63
2019-05-16T04:18:32.180Z,9.50
2019-05-16T04:21:02.035Z,11.17
2019-05-16T04:23:31.807Z,9.97
2019-05-16T04:26:01.483Z,10.13
2019-05-16T04:28:31.977Z,11.03
2019-05-16T04:31:02.410Z,9.13
2019-05-16T04:33:32.220Z,8.83
2019-05-16T04:36:01.844Z,9.20
2019-05-16T04:38:40.040Z,10.80
2019-05-16T04:41:03.387Z,11.97
2019-05-16T04:43:33.226Z,12.90
2019-05-16T04:46:03.053Z,12.43
2019-05-16T04:48:32.692Z,13.77
2019-05-16T04:51:02.462Z,13.27
2019-05-16T04:53:32.307Z,12.73
2019-05-16T04:56:02.245Z,13.40
2019-05-16T04:58:32.232Z,12.57
2019-05-16T05:01:02.097Z,13.23
2019-05-16T05:03:35.052Z,13.83
2019-05-16T05:06:04.957Z,12.47
2019-05-16T05:08:48.972Z,13.60
2019-05-16T05:11:06.774Z,12.93
2019-05-16T05:13:36.426Z,13.03
2019-05-16T05:16:06.085Z,13.10
2019-05-16T05:18:35.839Z,15.43
2019-05-16T05:21:05.554Z,12.30
2019-05-16T05:23:35.252Z,12.97
2019-05-16T05:26:04.922Z,13.03
2019-05-16T05:28:35.472Z,12.40
2019-05-16T05:31:05.378Z,13.10
2019-05-16T05:33:35.194Z,14.07
2019-05-16T05:36:04.879Z,14.90
2019-05-16T05:38:35.101Z,13.33
2019-05-16T05:41:05.254Z,12.57
2019-05-16T05:43:35.038Z,12.97
2019-05-16T05:46:04.763Z,14.37
2019-05-16T05:48:34.664Z,14.03
2019-05-16T05:51:04.455Z,12.17
2019-05-16T05:53:34.353Z,11.90
2019-05-16T05:56:04.605Z,12.10
2019-05-16T05:58:34.393Z,11.23
2019-05-16T06:01:04.160Z,10.67
2019-05-16T06:03:34.559Z,14.73
2019-05-16T06:06:04.269Z,11.93
2019-05-16T06:08:33.876Z,15.13
2019-05-16T06:11:03.503Z,14.10
2019-05-16T06:13:33.193Z,12.73
2019-05-16T06:16:02.901Z,11.10
2019-05-16T06:18:32.646Z,11.53
2019-05-16T06:21:02.272Z,12.80
2019-05-16T06:23:31.917Z,10.03
2019-05-16T06:26:01.983Z,10.23
2019-05-16T06:28:31.702Z,10.30
2019-05-16T06:31:02.466Z,13.60
2019-05-16T06:33:32.483Z,11.77
2019-05-16T06:36:02.359Z,11.93
2019-05-16T06:38:32.144Z,13.30
2019-05-16T06:41:01.750Z,10.63
2019-05-16T06:43:31.371Z,11.50
2019-05-16T06:46:00.976Z,11.57
2019-05-16T06:48:30.737Z,11.90
2019-05-16T06:51:02.988Z,11.90
2019-05-16T06:53:31.829Z,13.17
2019-05-16T06:56:01.646Z,12.67
2019-05-16T06:58:44.887Z,13.07
2019-05-16T07:01:03.871Z,12.33
2019-05-16T07:03:33.894Z,12.23
2019-05-16T07:06:03.583Z,12.23
2019-05-16T07:08:33.256Z,11.00
2019-05-16T07:11:03.060Z,11.90
2019-05-16T07:13:36.481Z,12.53
2019-05-16T07:16:06.556Z,12.33
2019-05-16T07:18:36.351Z,12.70
2019-05-16T07:21:06.900Z,12.50
2019-05-16T07:23:36.959Z,12.73
2019-05-16T07:26:06.730Z,10.47
2019-05-16T07:28:36.694Z,10.80
2019-05-16T07:31:15.700Z,10.37
2019-05-16T07:33:40.641Z,9.83
2019-05-16T07:36:10.152Z,9.37
2019-05-16T07:38:40.181Z,10.30
2019-05-16T07:41:10.983Z,9.87
2019-05-16T07:43:41.385Z,10.13
2019-05-16T07:46:11.289Z,9.33
2019-05-16T07:48:40.921Z,8.33
2019-05-16T07:51:10.678Z,10.50
2019-05-16T07:53:40.480Z,8.57
2019-05-16T07:56:10.730Z,8.23
2019-05-16T07:58:41.384Z,8.67
2019-05-16T08:01:12.410Z,8.73
2019-05-16T08:03:44.131Z,10.40
2019-05-16T08:06:14.087Z,13.30
2019-05-16T08:08:43.779Z,10.97
2019-05-16T08:11:13.465Z,9.03
2019-05-16T08:13:43.474Z,9.47
2019-05-16T08:16:13.416Z,9.17
2019-05-16T08:18:45.281Z,9.47
2019-05-16T08:21:17.018Z,10.63
2019-05-16T08:23:47.040Z,9.23
2019-05-16T08:26:17.110Z,8.40
2019-05-16T08:28:50.341Z,8.73
2019-05-16T08:31:21.740Z,9.97
2019-05-16T08:36:23.267Z,8.47
2019-05-16T08:38:53.409Z,11.33
2019-05-16T08:41:23.404Z,9.20
2019-05-16T08:43:53.677Z,9.80
2019-05-16T08:46:23.761Z,9.87
2019-05-16T08:48:54.391Z,9.60
2019-05-16T08:51:24.226Z,10.20
2019-05-16T08:53:54.118Z,11.27
2019-05-16T08:56:24.009Z,12.30
2019-05-16T08:58:54.344Z,10.50
2019-05-16T09:01:24.220Z,11.73
2019-05-16T09:03:54.262Z,10.17
2019-05-16T09:06:24.797Z,12.20
2019-05-16T09:08:58.292Z,11.20
2019-05-16T09:10:31.460Z,8.83
2019-05-16T09:11:35.741Z,11.43
2019-05-16T09:13:58.569Z,10.83
2019-05-16T09:16:28.443Z,10.20
2019-05-16T09:18:58.366Z,12.00
2019-05-16T09:21:29.599Z,14.47
2019-05-16T09:23:59.997Z,9.47
2019-05-16T09:26:30.218Z,9.87
2019-05-16T09:29:00.219Z,10.07
2019-05-16T09:31:30.559Z,12.27
2019-05-16T09:34:00.172Z,10.27
2019-05-16T09:36:29.854Z,12.40
2019-05-16T09:38:59.872Z,10.27
2019-05-16T09:41:44.894Z,10.70
2019-05-16T09:44:01.270Z,11.87
2019-05-16T09:46:31.016Z,10.80
2019-05-16T09:49:15.830Z,9.97
2019-05-16T09:51:32.552Z,10.60
2019-05-16T09:54:02.823Z,10.53
2019-05-16T09:56:36.821Z,9.67
2019-05-16T09:59:07.072Z,10.23
2019-05-16T10:01:37.255Z,12.77
2019-05-16T10:04:07.119Z,13.60
2019-05-16T10:06:37.391Z,14.93
2019-05-16T10:09:08.118Z,10.23
2019-05-16T10:11:41.791Z,11.10
2019-05-16T10:14:09.722Z,12.33
2019-05-16T10:16:39.477Z,11.57
2019-05-16T10:19:09.338Z,11.37
2019-05-16T10:21:39.638Z,9.93
2019-05-16T10:24:10.061Z,10.43
2019-05-16T10:26:39.792Z,50.60
2019-05-16T10:29:10.903Z,10.73
2019-05-16T10:31:51.646Z,10.13
2019-05-16T10:34:13.685Z,9.90
2019-05-16T10:36:43.681Z,12.13
2019-05-16T10:39:13.270Z,10.23
2019-05-16T10:41:43.395Z,16.50
2019-05-16T10:44:13.046Z,10.83
2019-05-16T10:46:47.681Z,13.73
2019-05-16T10:49:33.255Z,11.23
2019-05-16T10:51:49.825Z,11.50
2019-05-16T10:54:19.842Z,9.97
2019-05-16T10:56:49.885Z,11.13
2019-05-16T10:59:54.105Z,13.57
2019-05-16T11:01:51.449Z,10.33
2019-05-16T11:04:29.162Z,11.33
2019-05-16T11:06:52.896Z,10.87
2019-05-16T11:09:22.521Z,9.93
2019-05-16T11:11:52.409Z,10.60
2019-05-16T11:14:21.996Z,12.00
2019-05-16T11:16:51.603Z,12.37
2019-05-16T11:19:24.635Z,10.77
2019-05-16T11:21:52.706Z,11.60
2019-05-16T11:24:22.392Z,12.30
2019-05-16T11:26:52.080Z,11.13
2019-05-16T11:29:21.775Z,10.77
2019-05-16T11:31:51.414Z,11.07
2019-05-16T11:34:21.039Z,10.37
2019-05-16T11:36:50.839Z,11.83
2019-05-16T11:39:20.504Z,13.93
2019-05-16T11:41:50.122Z,12.63
2019-05-16T11:44:19.719Z,12.10
2019-05-16T11:46:49.434Z,10.63
2019-05-16T11:49:19.261Z,10.53
2019-05-16T11:51:48.915Z,11.00
2019-05-16T11:54:18.806Z,10.13
2019-05-16T11:56:48.435Z,13.77
2019-05-16T11:59:18.278Z,10.57
2019-05-16T12:01:47.886Z,10.63
2019-05-16T12:04:17.670Z,12.70
2019-05-16T12:06:47.304Z,10.57
2019-05-16T12:09:17.782Z,10.93
2019-05-16T12:11:47.640Z,10.47
2019-05-16T12:14:17.424Z,11.20
2019-05-16T12:16:47.433Z,11.70
2019-05-16T12:19:18.112Z,11.63
2019-05-16T12:21:48.224Z,12.97
2019-05-16T12:24:31.698Z,11.40
2019-05-16T12:26:49.548Z,10.93
2019-05-16T12:29:19.550Z,12.30
2019-05-16T12:31:57.610Z,11.07
2019-05-16T12:34:21.101Z,12.40
2019-05-16T12:36:50.995Z,11.83
2019-05-16T12:39:20.784Z,10.93
2019-05-16T12:41:50.862Z,10.57
2019-05-16T12:44:20.662Z,11.33
2019-05-16T12:46:50.415Z,11.17
2019-05-16T12:49:20.155Z,10.13
2019-05-16T12:51:49.897Z,10.47
2019-05-16T12:54:19.530Z,11.30
2019-05-16T12:56:49.186Z,10.70
2019-05-16T12:59:21.636Z,11.27
2019-05-16T13:01:51.693Z,11.87
2019-05-16T13:04:21.353Z,9.47
2019-05-16T13:06:51.011Z,10.83
2019-05-16T13:09:20.709Z,12.07
2019-05-16T13:11:50.439Z,9.93
2019-05-16T13:14:20.149Z,9.47
2019-05-16T13:16:49.842Z,9.63
2019-05-16T13:19:19.490Z,11.50
2019-05-16T13:21:50.260Z,10.37
2019-05-16T13:24:19.981Z,12.33
2019-05-16T13:26:49.667Z,10.83
2019-05-16T13:29:19.407Z,11.27
2019-05-16T13:31:49.450Z,13.13
2019-05-16T13:34:19.109Z,10.90
2019-05-16T13:36:48.844Z,13.80
2019-05-16T13:39:18.574Z,10.57
2019-05-16T13:41:48.247Z,9.73
2019-05-16T13:44:22.155Z,12.93
2019-05-16T13:46:49.311Z,11.63
2019-05-16T13:49:18.847Z,9.70
2019-05-16T13:51:48.474Z,9.57
2019-05-16T13:54:18.055Z,11.87
2019-05-16T13:56:48.672Z,10.20
2019-05-16T13:59:18.292Z,10.00
2019-05-16T14:01:47.840Z,9.90
2019-05-16T14:04:17.615Z,9.30
2019-05-16T14:06:47.695Z,11.37
2019-05-16T14:09:17.568Z,10.00
2019-05-16T14:11:47.670Z,9.43
2019-05-16T14:14:33.171Z,11.33
2019-05-16T14:16:48.735Z,9.23
2019-05-16T14:19:18.332Z,9.07
2019-05-16T14:21:48.090Z,9.47
2019-05-16T14:24:18.183Z,11.13
2019-05-16T14:26:48.109Z,10.93
2019-05-16T14:29:18.077Z,10.30
2019-05-16T14:31:47.923Z,9.63
2019-05-16T14:34:18.280Z,9.00
2019-05-16T14:36:48.051Z,8.90
2019-05-16T14:39:19.323Z,9.07
2019-05-16T14:41:49.021Z,9.03
2019-05-16T14:44:18.722Z,9.20
2019-05-16T14:46:48.280Z,7.93
2019-05-16T14:49:17.869Z,8.60
2019-05-16T14:51:47.927Z,8.33
2019-05-16T14:54:17.627Z,9.43
2019-05-16T14:56:47.767Z,10.27
2019-05-16T14:59:17.450Z,9.63
2019-05-16T15:01:47.445Z,8.00
2019-05-16T15:04:17.214Z,7.60
2019-05-16T15:06:47.182Z,7.50
2019-05-16T15:09:17.537Z,11.07
2019-05-16T15:11:47.488Z,7.77
2019-05-16T15:14:17.607Z,8.50
2019-05-16T15:16:51.718Z,7.23
2019-05-16T15:19:19.348Z,7.57
2019-05-16T15:21:48.963Z,8.13
2019-05-16T15:24:18.561Z,7.40
2019-05-16T15:26:48.165Z,7.37
2019-05-16T15:29:17.815Z,7.87
2019-05-16T15:31:47.484Z,9.33
2019-05-16T15:34:17.083Z,7.30
2019-05-16T15:36:46.944Z,10.27
2019-05-16T15:39:17.114Z,8.67
2019-05-16T15:41:46.872Z,7.70
2019-05-16T15:44:17.166Z,7.33
2019-05-16T15:46:47.898Z,9.37
2019-05-16T15:49:18.076Z,9.03
2019-05-16T15:51:49.014Z,8.83
2019-05-16T15:54:23.117Z,7.80
2019-05-16T15:56:52.724Z,8.77
2019-05-16T15:59:22.525Z,8.67
2019-05-16T16:01:52.128Z,10.30
2019-05-16T16:04:21.721Z,10.37
2019-05-16T16:06:51.296Z,10.40
2019-05-16T16:09:20.994Z,7.90
2019-05-16T16:11:50.571Z,6.97
2019-05-16T16:14:20.172Z,9.07
2019-05-16T16:16:49.895Z,8.07
2019-05-16T16:19:19.456Z,5.40
2019-05-16T16:21:49.095Z,5.30
2019-05-16T16:24:19.357Z,5.00
2019-05-16T16:26:49.011Z,5.10
2019-05-16T16:29:18.649Z,6.37
2019-05-16T16:31:48.223Z,7.23
2019-05-16T16:34:17.873Z,6.33
2019-05-16T16:36:47.766Z,6.23
2019-05-16T16:39:17.394Z,6.43
2019-05-16T16:41:47.783Z,5.13
2019-05-16T16:44:18.152Z,7.67
2019-05-16T16:46:47.857Z,5.60
2019-05-16T16:49:17.584Z,4.97
2019-05-16T16:51:47.971Z,4.40
2019-05-16T16:54:17.853Z,4.30
2019-05-16T16:56:47.556Z,4.77
2019-05-16T16:59:17.503Z,4.17
2019-05-16T17:01:47.512Z,6.93
2019-05-16T17:04:17.640Z,4.37
2019-05-16T17:06:47.283Z,4.43
2019-05-16T17:09:16.881Z,6.67
2019-05-16T17:11:46.726Z,5.53
2019-05-16T17:14:17.332Z,4.70
2019-05-16T17:16:47.553Z,4.23
2019-05-16T17:19:17.202Z,6.47
2019-05-16T17:22:01.848Z,4.27
2019-05-16T17:24:18.155Z,3.73
2019-05-16T17:26:48.025Z,4.30
2019-05-16T17:29:17.547Z,4.20
2019-05-16T17:31:56.295Z,5.33
2019-05-16T17:34:18.549Z,4.43
2019-05-16T17:36:48.176Z,6.40
2019-05-16T17:39:18.364Z,4.33
2019-05-16T17:41:54.408Z,3.57
2019-05-16T17:44:19.382Z,4.73
2019-05-16T17:46:48.992Z,3.53
2019-05-16T17:49:18.598Z,4.87
2019-05-16T17:51:48.279Z,4.93
2019-05-16T17:54:17.890Z,4.53
2019-05-16T17:56:47.491Z,4.60
2019-05-16T17:59:17.245Z,4.63
2019-05-16T18:01:46.890Z,4.50
2019-05-16T18:04:17.212Z,3.57
2019-05-16T18:06:47.338Z,3.00
2019-05-16T18:09:17.264Z,3.13
2019-05-16T18:11:46.992Z,3.57
2019-05-16T18:14:17.297Z,3.00
2019-05-16T18:16:53.548Z,3.17
2019-05-16T18:19:18.376Z,3.23
2019-05-16T18:21:47.952Z,3.40
2019-05-16T18:24:17.555Z,2.73
2019-05-16T18:26:47.189Z,3.10
2019-05-16T18:29:16.759Z,3.30
2019-05-16T18:31:47.185Z,3.33
2019-05-16T18:34:17.111Z,4.83
2019-05-16T18:36:46.864Z,4.63
2019-05-16T18:39:16.459Z,2.77
2019-05-16T18:41:47.194Z,3.93
2019-05-16T18:44:16.929Z,3.03
2019-05-16T18:46:47.137Z,2.43
2019-05-16T18:49:16.902Z,3.43
2019-05-16T18:51:46.689Z,4.43
2019-05-16T18:54:17.338Z,5.90
2019-05-16T18:56:47.518Z,2.83
2019-05-16T18:59:17.142Z,2.67
2019-05-16T19:01:47.063Z,4.40
2019-05-16T19:04:17.523Z,4.13
2019-05-16T19:06:47.549Z,2.77
2019-05-16T19:09:17.155Z,3.73
2019-05-16T19:11:46.862Z,2.87
2019-05-16T19:14:17.011Z,2.83
2019-05-16T19:16:48.900Z,2.70
2019-05-16T19:19:18.101Z,2.60
2019-05-16T19:21:47.668Z,2.77
2019-05-16T19:24:19.970Z,2.30
2019-05-16T19:26:49.602Z,2.97
2019-05-16T19:29:19.257Z,2.50
2019-05-16T19:31:50.572Z,3.30
2019-05-16T19:34:20.328Z,4.60
2019-05-16T19:36:50.113Z,2.10
2019-05-16T19:39:19.788Z,2.93
2019-05-16T19:41:49.404Z,4.13
2019-05-16T19:44:18.995Z,2.33
2019-05-16T19:46:48.555Z,2.40
2019-05-16T19:49:18.143Z,2.83
2019-05-16T19:51:49.055Z,2.33
2019-05-16T19:54:18.866Z,3.40
2019-05-16T19:56:48.500Z,4.33
2019-05-16T19:59:18.077Z,2.77
2019-05-16T20:01:47.683Z,3.53
2019-05-16T20:04:18.392Z,5.50
2019-05-16T20:06:48.271Z,8.93
2019-05-16T20:09:17.865Z,4.37
2019-05-16T20:11:47.499Z,2.97
2019-05-16T20:14:19.681Z,2.77
2019-05-16T20:16:48.431Z,2.73
2019-05-16T20:19:18.072Z,3.97
2019-05-16T20:21:47.766Z,3.10
2019-05-16T20:24:17.318Z,3.93
2019-05-16T20:26:46.960Z,2.57
2019-05-16T20:29:17.067Z,3.03
2019-05-16T20:31:47.488Z,3.70
2019-05-16T20:34:17.716Z,2.80
2019-05-16T20:36:47.464Z,4.80
2019-05-16T20:39:17.457Z,4.30
2019-05-16T20:41:47.536Z,4.90
2019-05-16T20:44:17.585Z,8.10
2019-05-16T20:46:49.662Z,3.67
2019-05-16T20:49:18.479Z,4.93
2019-05-16T20:51:50.083Z,4.13
2019-05-16T20:54:19.379Z,3.50
2019-05-16T20:56:49.582Z,6.50
2019-05-16T20:59:19.300Z,5.83
2019-05-16T21:09:10.691Z,3.63
2019-05-16T21:11:40.313Z,3.67
2019-05-16T21:14:09.985Z,3.90
2019-05-16T21:16:39.607Z,6.10
2019-05-16T21:19:09.259Z,5.10
2019-05-16T21:21:38.888Z,4.77
2019-05-16T21:24:08.610Z,4.93
2019-05-16T21:26:38.283Z,3.37
2019-05-16T21:29:07.937Z,3.50
2019-05-16T21:31:37.664Z,3.10
2019-05-16T21:34:07.382Z,4.03
2019-05-16T21:36:37.024Z,2.97
2019-05-16T21:39:08.637Z,4.23
2019-05-16T21:41:38.393Z,3.57
2019-05-16T21:44:08.148Z,4.00
2019-05-16T21:46:37.782Z,3.63
2019-05-16T21:49:07.616Z,4.97
2019-05-16T21:51:37.452Z,3.37
2019-05-16T21:54:07.375Z,3.10
2019-05-16T21:56:37.348Z,3.77
2019-05-16T21:59:07.110Z,4.97
2019-05-16T22:01:37.315Z,3.30
2019-05-16T22:04:07.460Z,5.00
2019-05-16T22:06:37.244Z,3.80
2019-05-16T22:09:08.301Z,3.50
2019-05-16T22:11:37.950Z,3.90
2019-05-16T22:14:07.577Z,4.47
2019-05-16T22:16:37.558Z,3.40
2019-05-16T22:19:07.265Z,3.70
2019-05-16T22:21:36.991Z,2.97
2019-05-16T22:27:07.184Z,3.20
2019-05-16T22:29:37.170Z,3.40
2019-05-16T22:32:09.224Z,3.07
2019-05-16T22:34:38.430Z,3.10
2019-05-16T22:37:08.148Z,3.13
2019-05-16T22:39:37.822Z,3.10
2019-05-16T22:42:09.408Z,6.40
2019-05-16T22:44:39.088Z,6.57
2019-05-16T22:47:08.719Z,3.30
2019-05-16T22:49:38.359Z,3.10
2019-05-16T22:52:08.042Z,3.30
2019-05-16T22:54:37.675Z,5.13
2019-05-16T22:57:07.289Z,3.10
2019-05-16T22:59:36.937Z,3.73
2019-05-16T23:02:11.576Z,3.97
2019-05-16T23:04:39.379Z,3.53
2019-05-16T23:07:09.421Z,6.33
2019-05-16T23:09:38.975Z,4.10
2019-05-16T23:12:08.533Z,4.10
2019-05-16T23:14:38.089Z,4.53
2019-05-16T23:17:07.681Z,3.80
2019-05-16T23:19:37.271Z,3.97
2019-05-16T23:22:08.173Z,4.57
2019-05-16T23:24:37.843Z,3.80
2019-05-16T23:27:07.482Z,3.40
2019-05-16T23:29:37.079Z,5.17
2019-05-16T23:32:07.465Z,3.50
2019-05-16T23:34:37.490Z,3.77
2019-05-16T23:37:07.158Z,3.10
2019-05-16T23:39:37.942Z,3.30
2019-05-16T23:42:07.658Z,5.13
2019-05-16T23:44:37.237Z,3.57
2019-05-16T23:47:07.159Z,3.50
2019-05-16T23:49:37.014Z,5.33
2019-05-16T23:52:07.460Z,3.73
2019-05-16T23:54:37.198Z,3.53
2019-05-16T23:57:06.853Z,3.50
2019-05-16T23:59:37.005Z,2.60
